Overview Statistics Trail Chart Weather Telemetry Raw packets
 

This is the latest recevied weather packets stored in our database for station/object DK6MR-13. If no packets are shown the sender has not sent any weather packets the latest 10 day(s).

<< 13 14 15 16 17 >>
Time Temp. Humidity Pressure Rain* Wind** Luminosity Snow
1777757737 13.89° C 91% 1013.2 hPa 0 mm - - -
1777756837 13.89° C 91% 1013.2 hPa 0 mm - - -
1777755936 14.44° C 91% 1012.8 hPa 0 mm - - -
1777755035 14.44° C 91% 1013.2 hPa 0 mm - - -
1777754135 15° C 91% 1013.2 hPa 0 mm - - -
1777753232 15° C 91% 1013.2 hPa 0 mm - - -
1777752331 15° C 90% 1013.2 hPa 0 mm - - -
1777750529 15.56° C 90% 1013.2 hPa 0 mm - - -
1777749627 16.11° C 89% 1012.8 hPa 0 mm - - -
1777748726 16.67° C 90% 1012.8 hPa 0 mm - - -
1777747841 16.67° C 89% 1012.8 hPa 0 mm - - -
1777746924 16.67° C 88% 1012.8 hPa 0 mm - - -
1777746024 16.67° C 87% 1012.8 hPa 0 mm - - -
1777745123 16.67° C 84% 1012.5 hPa 0 mm - - -
1777744222 17.22° C 85% 1012.5 hPa 0 mm - - -
1777743321 17.78° C 84% 1012.5 hPa 0 mm - - -
1777742420 18.33° C 87% 1012.5 hPa 0 mm - - -
1777741519 18.33° C 86% 1012.8 hPa 0 mm - - -
1777740618 19.44° C 82% 1012.8 hPa 0 mm - - -
1777739717 18.89° C 80% 1013.5 hPa 1.78 mm - - -
1777738816 20.56° C 76% 1013.9 hPa 8.89 mm - - -
1777737915 22.78° C 61% 1013.5 hPa 0 mm - - -
1777737014 23.89° C 55% 1013.5 hPa 0 mm - - -
1777736113 24.44° C 54% 1013.5 hPa 0 mm - - -
1777735213 24.44° C 53% 1013.5 hPa 0 mm - - -

* Rain latest hour (hover to see other rain measurements)
** Current wind speed in m/s (hover to see current wind gust speed)